sensor_id;sensor_type;location;lat;lon;timestamp;P1;durP1;ratioP1;P2;durP2;ratioP2
77524;SDS011;66638;50.050;21.124;2023-10-19T00:03:34;21.60;;;13.00;;
77524;SDS011;66638;50.050;21.124;2023-10-19T00:06:22;23.00;;;13.10;;
77524;SDS011;66638;50.050;21.124;2023-10-19T00:09:12;21.40;;;12.30;;
77524;SDS011;66638;50.050;21.124;2023-10-19T00:12:02;18.10;;;13.60;;
77524;SDS011;66638;50.050;21.124;2023-10-19T00:14:50;22.80;;;12.40;;
77524;SDS011;66638;50.050;21.124;2023-10-19T00:17:38;20.40;;;11.60;;
77524;SDS011;66638;50.050;21.124;2023-10-19T00:20:26;20.80;;;12.50;;
77524;SDS011;66638;50.050;21.124;2023-10-19T00:23:33;17.10;;;10.80;;
77524;SDS011;66638;50.050;21.124;2023-10-19T00:26:22;21.00;;;11.90;;
77524;SDS011;66638;50.050;21.124;2023-10-19T00:29:15;17.90;;;11.10;;
77524;SDS011;66638;50.050;21.124;2023-10-19T00:32:23;19.70;;;11.70;;
77524;SDS011;66638;50.050;21.124;2023-10-19T00:35:11;15.00;;;9.60;;
77524;SDS011;66638;50.050;21.124;2023-10-19T00:38:19;18.20;;;11.20;;
77524;SDS011;66638;50.050;21.124;2023-10-19T00:41:26;15.10;;;9.80;;
77524;SDS011;66638;50.050;21.124;2023-10-19T00:44:17;17.20;;;10.00;;
77524;SDS011;66638;50.050;21.124;2023-10-19T00:47:23;21.30;;;12.00;;
77524;SDS011;66638;50.050;21.124;2023-10-19T00:50:11;19.70;;;9.80;;
77524;SDS011;66638;50.050;21.124;2023-10-19T00:53:03;16.80;;;9.60;;
77524;SDS011;66638;50.050;21.124;2023-10-19T00:55:55;16.50;;;9.40;;
77524;SDS011;66638;50.050;21.124;2023-10-19T00:58:43;16.60;;;9.00;;
77524;SDS011;66638;50.050;21.124;2023-10-19T01:01:40;16.90;;;9.80;;
77524;SDS011;66638;50.050;21.124;2023-10-19T01:04:31;16.20;;;9.50;;
77524;SDS011;66638;50.050;21.124;2023-10-19T01:07:22;15.30;;;9.40;;
77524;SDS011;66638;50.050;21.124;2023-10-19T01:10:13;14.30;;;9.20;;
77524;SDS011;66638;50.050;21.124;2023-10-19T01:13:08;14.10;;;9.20;;
77524;SDS011;66638;50.050;21.124;2023-10-19T01:15:56;25.00;;;11.80;;
77524;SDS011;66638;50.050;21.124;2023-10-19T01:18:47;24.60;;;11.80;;
77524;SDS011;66638;50.050;21.124;2023-10-19T01:21:35;16.20;;;11.10;;
77524;SDS011;66638;50.050;21.124;2023-10-19T01:24:31;16.00;;;9.90;;
77524;SDS011;66638;50.050;21.124;2023-10-19T01:27:27;15.30;;;8.50;;
77524;SDS011;66638;50.050;21.124;2023-10-19T01:30:16;13.70;;;8.60;;
77524;SDS011;66638;50.050;21.124;2023-10-19T01:33:05;16.70;;;10.30;;
77524;SDS011;66638;50.050;21.124;2023-10-19T01:35:59;12.80;;;8.10;;
77524;SDS011;66638;50.050;21.124;2023-10-19T01:39:07;14.50;;;9.00;;
77524;SDS011;66638;50.050;21.124;2023-10-19T01:41:58;16.00;;;8.30;;
77524;SDS011;66638;50.050;21.124;2023-10-19T01:44:46;15.10;;;9.60;;
77524;SDS011;66638;50.050;21.124;2023-10-19T01:47:34;20.60;;;11.70;;
77524;SDS011;66638;50.050;21.124;2023-10-19T01:50:25;16.30;;;9.30;;
77524;SDS011;66638;50.050;21.124;2023-10-19T01:53:16;13.80;;;8.90;;
77524;SDS011;66638;50.050;21.124;2023-10-19T01:56:07;14.80;;;8.00;;
77524;SDS011;66638;50.050;21.124;2023-10-19T01:58:56;14.20;;;8.40;;
77524;SDS011;66638;50.050;21.124;2023-10-19T02:01:45;13.40;;;8.20;;
77524;SDS011;66638;50.050;21.124;2023-10-19T02:04:33;12.00;;;7.80;;
77524;SDS011;66638;50.050;21.124;2023-10-19T02:07:22;14.90;;;8.30;;
77524;SDS011;66638;50.050;21.124;2023-10-19T02:10:10;14.70;;;9.30;;
77524;SDS011;66638;50.050;21.124;2023-10-19T02:13:01;14.90;;;9.10;;
77524;SDS011;66638;50.050;21.124;2023-10-19T02:15:53;17.30;;;8.50;;
77524;SDS011;66638;50.050;21.124;2023-10-19T02:21:31;12.10;;;7.80;;
77524;SDS011;66638;50.050;21.124;2023-10-19T02:24:19;12.20;;;8.20;;
77524;SDS011;66638;50.050;21.124;2023-10-19T02:27:06;10.40;;;7.40;;
77524;SDS011;66638;50.050;21.124;2023-10-19T02:29:56;12.80;;;7.50;;
77524;SDS011;66638;50.050;21.124;2023-10-19T02:32:44;14.20;;;8.10;;
77524;SDS011;66638;50.050;21.124;2023-10-19T02:35:33;12.90;;;8.50;;
77524;SDS011;66638;50.050;21.124;2023-10-19T02:38:23;20.30;;;11.50;;
77524;SDS011;66638;50.050;21.124;2023-10-19T02:41:10;20.80;;;11.80;;
77524;SDS011;66638;50.050;21.124;2023-10-19T02:43:58;16.60;;;10.30;;
77524;SDS011;66638;50.050;21.124;2023-10-19T02:46:50;14.20;;;8.40;;
77524;SDS011;66638;50.050;21.124;2023-10-19T02:49:39;10.30;;;7.30;;
77524;SDS011;66638;50.050;21.124;2023-10-19T02:52:30;12.20;;;7.90;;
77524;SDS011;66638;50.050;21.124;2023-10-19T02:55:17;11.60;;;8.10;;
77524;SDS011;66638;50.050;21.124;2023-10-19T02:58:06;13.80;;;8.10;;
77524;SDS011;66638;50.050;21.124;2023-10-19T03:00:53;12.20;;;7.20;;
77524;SDS011;66638;50.050;21.124;2023-10-19T03:03:41;13.60;;;8.20;;
77524;SDS011;66638;50.050;21.124;2023-10-19T03:06:31;16.80;;;10.20;;
77524;SDS011;66638;50.050;21.124;2023-10-19T03:09:22;19.20;;;10.80;;
77524;SDS011;66638;50.050;21.124;2023-10-19T03:12:15;17.80;;;10.30;;
77524;SDS011;66638;50.050;21.124;2023-10-19T03:15:04;14.80;;;9.10;;
77524;SDS011;66638;50.050;21.124;2023-10-19T03:17:52;14.80;;;9.00;;
77524;SDS011;66638;50.050;21.124;2023-10-19T03:20:39;15.40;;;9.10;;
77524;SDS011;66638;50.050;21.124;2023-10-19T03:23:27;14.20;;;8.80;;
77524;SDS011;66638;50.050;21.124;2023-10-19T03:26:15;10.50;;;6.90;;
77524;SDS011;66638;50.050;21.124;2023-10-19T03:29:10;12.30;;;8.20;;
77524;SDS011;66638;50.050;21.124;2023-10-19T03:32:01;14.90;;;9.80;;
77524;SDS011;66638;50.050;21.124;2023-10-19T03:34:49;15.90;;;8.60;;
77524;SDS011;66638;50.050;21.124;2023-10-19T03:37:37;17.30;;;9.60;;
77524;SDS011;66638;50.050;21.124;2023-10-19T03:40:24;15.30;;;8.60;;
77524;SDS011;66638;50.050;21.124;2023-10-19T03:43:19;12.20;;;7.80;;
77524;SDS011;66638;50.050;21.124;2023-10-19T03:46:10;11.40;;;8.50;;
77524;SDS011;66638;50.050;21.124;2023-10-19T03:49:18;13.10;;;7.50;;
77524;SDS011;66638;50.050;21.124;2023-10-19T03:52:06;15.10;;;8.60;;
77524;SDS011;66638;50.050;21.124;2023-10-19T03:55:13;16.60;;;8.70;;
77524;SDS011;66638;50.050;21.124;2023-10-19T03:58:06;19.20;;;9.30;;
77524;SDS011;66638;50.050;21.124;2023-10-19T04:00:53;15.50;;;9.30;;
77524;SDS011;66638;50.050;21.124;2023-10-19T04:03:40;12.40;;;7.40;;
77524;SDS011;66638;50.050;21.124;2023-10-19T04:06:27;19.00;;;10.60;;
77524;SDS011;66638;50.050;21.124;2023-10-19T04:09:15;20.30;;;10.30;;
77524;SDS011;66638;50.050;21.124;2023-10-19T04:12:04;19.20;;;11.00;;
77524;SDS011;66638;50.050;21.124;2023-10-19T04:14:53;16.40;;;9.00;;
77524;SDS011;66638;50.050;21.124;2023-10-19T04:17:40;19.60;;;11.00;;
77524;SDS011;66638;50.050;21.124;2023-10-19T04:20:29;18.50;;;10.40;;
77524;SDS011;66638;50.050;21.124;2023-10-19T04:23:35;19.90;;;10.40;;
77524;SDS011;66638;50.050;21.124;2023-10-19T04:26:23;18.60;;;10.70;;
77524;SDS011;66638;50.050;21.124;2023-10-19T04:29:12;20.40;;;10.50;;
77524;SDS011;66638;50.050;21.124;2023-10-19T04:32:03;18.30;;;9.80;;
77524;SDS011;66638;50.050;21.124;2023-10-19T04:34:54;21.10;;;10.60;;
77524;SDS011;66638;50.050;21.124;2023-10-19T04:37:41;17.10;;;11.00;;
77524;SDS011;66638;50.050;21.124;2023-10-19T04:40:29;19.20;;;11.10;;
77524;SDS011;66638;50.050;21.124;2023-10-19T04:46:07;18.10;;;9.60;;
77524;SDS011;66638;50.050;21.124;2023-10-19T04:48:57;15.00;;;9.40;;
77524;SDS011;66638;50.050;21.124;2023-10-19T04:51:45;17.00;;;9.10;;
77524;SDS011;66638;50.050;21.124;2023-10-19T04:54:32;16.90;;;9.80;;
77524;SDS011;66638;50.050;21.124;2023-10-19T04:57:19;14.80;;;8.80;;
77524;SDS011;66638;50.050;21.124;2023-10-19T05:00:07;14.10;;;8.10;;
77524;SDS011;66638;50.050;21.124;2023-10-19T05:03:00;17.80;;;10.80;;
77524;SDS011;66638;50.050;21.124;2023-10-19T05:05:48;17.30;;;9.80;;
77524;SDS011;66638;50.050;21.124;2023-10-19T05:08:35;14.90;;;8.90;;
77524;SDS011;66638;50.050;21.124;2023-10-19T05:11:24;15.90;;;7.80;;
77524;SDS011;66638;50.050;21.124;2023-10-19T05:14:12;16.50;;;10.70;;
77524;SDS011;66638;50.050;21.124;2023-10-19T05:17:03;17.20;;;8.90;;
77524;SDS011;66638;50.050;21.124;2023-10-19T05:19:58;13.40;;;8.60;;
77524;SDS011;66638;50.050;21.124;2023-10-19T05:22:45;15.40;;;8.90;;
77524;SDS011;66638;50.050;21.124;2023-10-19T05:25:39;18.00;;;10.60;;
77524;SDS011;66638;50.050;21.124;2023-10-19T05:28:26;18.10;;;9.60;;
77524;SDS011;66638;50.050;21.124;2023-10-19T05:31:13;12.90;;;8.70;;
77524;SDS011;66638;50.050;21.124;2023-10-19T05:34:02;10.80;;;7.80;;
77524;SDS011;66638;50.050;21.124;2023-10-19T05:36:51;13.20;;;8.60;;
77524;SDS011;66638;50.050;21.124;2023-10-19T05:39:38;16.30;;;8.70;;
77524;SDS011;66638;50.050;21.124;2023-10-19T05:42:26;12.10;;;8.10;;
77524;SDS011;66638;50.050;21.124;2023-10-19T05:45:15;22.40;;;13.80;;
77524;SDS011;66638;50.050;21.124;2023-10-19T05:48:09;18.70;;;11.80;;
77524;SDS011;66638;50.050;21.124;2023-10-19T05:50:58;16.80;;;9.90;;
77524;SDS011;66638;50.050;21.124;2023-10-19T05:53:46;12.00;;;9.10;;
77524;SDS011;66638;50.050;21.124;2023-10-19T05:56:32;11.80;;;7.90;;
77524;SDS011;66638;50.050;21.124;2023-10-19T05:59:23;16.40;;;9.70;;
77524;SDS011;66638;50.050;21.124;2023-10-19T06:02:13;16.00;;;9.50;;
77524;SDS011;66638;50.050;21.124;2023-10-19T06:05:00;12.20;;;8.00;;
77524;SDS011;66638;50.050;21.124;2023-10-19T06:10:35;22.30;;;12.00;;
77524;SDS011;66638;50.050;21.124;2023-10-19T06:13:21;17.20;;;10.90;;
77524;SDS011;66638;50.050;21.124;2023-10-19T06:16:09;15.00;;;10.10;;
77524;SDS011;66638;50.050;21.124;2023-10-19T06:18:55;12.30;;;9.10;;
77524;SDS011;66638;50.050;21.124;2023-10-19T06:21:42;14.60;;;8.60;;
77524;SDS011;66638;50.050;21.124;2023-10-19T06:24:30;10.50;;;8.90;;
77524;SDS011;66638;50.050;21.124;2023-10-19T06:27:17;11.90;;;9.10;;
77524;SDS011;66638;50.050;21.124;2023-10-19T06:30:05;11.10;;;8.70;;
77524;SDS011;66638;50.050;21.124;2023-10-19T06:32:55;11.40;;;9.50;;
77524;SDS011;66638;50.050;21.124;2023-10-19T06:35:43;11.50;;;9.00;;
77524;SDS011;66638;50.050;21.124;2023-10-19T06:38:30;11.50;;;9.30;;
77524;SDS011;66638;50.050;21.124;2023-10-19T06:41:20;11.70;;;9.80;;
77524;SDS011;66638;50.050;21.124;2023-10-19T06:44:09;12.10;;;9.70;;
77524;SDS011;66638;50.050;21.124;2023-10-19T06:46:58;11.70;;;9.50;;
77524;SDS011;66638;50.050;21.124;2023-10-19T06:49:45;12.20;;;10.50;;
77524;SDS011;66638;50.050;21.124;2023-10-19T06:52:35;13.00;;;9.90;;
77524;SDS011;66638;50.050;21.124;2023-10-19T06:55:26;12.50;;;10.00;;
77524;SDS011;66638;50.050;21.124;2023-10-19T06:58:15;12.40;;;9.20;;
77524;SDS011;66638;50.050;21.124;2023-10-19T07:01:09;12.90;;;9.50;;
77524;SDS011;66638;50.050;21.124;2023-10-19T07:03:57;11.60;;;9.40;;
77524;SDS011;66638;50.050;21.124;2023-10-19T07:06:45;10.50;;;9.00;;
77524;SDS011;66638;50.050;21.124;2023-10-19T07:09:34;11.60;;;9.40;;
77524;SDS011;66638;50.050;21.124;2023-10-19T07:12:22;9.70;;;7.70;;
77524;SDS011;66638;50.050;21.124;2023-10-19T07:15:10;11.40;;;7.70;;
77524;SDS011;66638;50.050;21.124;2023-10-19T07:18:01;8.80;;;7.90;;
77524;SDS011;66638;50.050;21.124;2023-10-19T07:20:48;8.10;;;7.30;;
77524;SDS011;66638;50.050;21.124;2023-10-19T07:23:36;8.30;;;7.00;;
77524;SDS011;66638;50.050;21.124;2023-10-19T07:26:24;7.70;;;6.80;;
77524;SDS011;66638;50.050;21.124;2023-10-19T07:29:18;7.50;;;6.40;;
77524;SDS011;66638;50.050;21.124;2023-10-19T07:32:05;7.10;;;6.30;;
77524;SDS011;66638;50.050;21.124;2023-10-19T07:34:52;7.80;;;6.40;;
77524;SDS011;66638;50.050;21.124;2023-10-19T07:37:41;7.70;;;6.80;;
77524;SDS011;66638;50.050;21.124;2023-10-19T07:40:30;8.40;;;6.30;;
77524;SDS011;66638;50.050;21.124;2023-10-19T07:43:18;7.50;;;6.60;;
77524;SDS011;66638;50.050;21.124;2023-10-19T07:46:07;8.50;;;7.40;;
77524;SDS011;66638;50.050;21.124;2023-10-19T07:48:55;9.30;;;6.90;;
77524;SDS011;66638;50.050;21.124;2023-10-19T07:51:45;7.00;;;5.80;;
77524;SDS011;66638;50.050;21.124;2023-10-19T07:54:34;8.50;;;7.20;;
77524;SDS011;66638;50.050;21.124;2023-10-19T07:57:21;10.20;;;8.50;;
77524;SDS011;66638;50.050;21.124;2023-10-19T08:00:09;9.00;;;8.10;;
77524;SDS011;66638;50.050;21.124;2023-10-19T08:02:59;6.70;;;6.00;;
77524;SDS011;66638;50.050;21.124;2023-10-19T08:05:47;9.40;;;6.30;;
77524;SDS011;66638;50.050;21.124;2023-10-19T08:08:35;7.00;;;6.10;;
77524;SDS011;66638;50.050;21.124;2023-10-19T08:11:22;7.80;;;6.20;;
77524;SDS011;66638;50.050;21.124;2023-10-19T08:14:10;8.30;;;6.30;;
77524;SDS011;66638;50.050;21.124;2023-10-19T08:16:57;6.60;;;5.60;;
77524;SDS011;66638;50.050;21.124;2023-10-19T08:19:45;6.70;;;5.30;;
77524;SDS011;66638;50.050;21.124;2023-10-19T08:22:32;8.30;;;5.40;;
77524;SDS011;66638;50.050;21.124;2023-10-19T08:25:20;7.90;;;6.00;;
77524;SDS011;66638;50.050;21.124;2023-10-19T08:28:07;10.10;;;5.90;;
77524;SDS011;66638;50.050;21.124;2023-10-19T08:30:55;8.40;;;6.20;;
77524;SDS011;66638;50.050;21.124;2023-10-19T08:33:47;6.60;;;5.60;;
77524;SDS011;66638;50.050;21.124;2023-10-19T08:36:34;9.70;;;6.70;;
77524;SDS011;66638;50.050;21.124;2023-10-19T08:39:23;7.10;;;5.20;;
77524;SDS011;66638;50.050;21.124;2023-10-19T08:42:14;8.40;;;5.70;;
77524;SDS011;66638;50.050;21.124;2023-10-19T08:45:04;6.60;;;5.00;;
77524;SDS011;66638;50.050;21.124;2023-10-19T08:47:58;9.40;;;6.50;;
77524;SDS011;66638;50.050;21.124;2023-10-19T08:50:47;7.10;;;5.60;;
77524;SDS011;66638;50.050;21.124;2023-10-19T08:53:39;6.50;;;5.00;;
77524;SDS011;66638;50.050;21.124;2023-10-19T08:56:31;6.60;;;4.40;;
77524;SDS011;66638;50.050;21.124;2023-10-19T08:59:20;8.90;;;4.50;;
77524;SDS011;66638;50.050;21.124;2023-10-19T09:02:13;6.90;;;4.70;;
77524;SDS011;66638;50.050;21.124;2023-10-19T09:05:06;6.90;;;4.60;;
77524;SDS011;66638;50.050;21.124;2023-10-19T09:07:55;6.20;;;4.30;;
77524;SDS011;66638;50.050;21.124;2023-10-19T09:10:44;5.90;;;3.80;;
77524;SDS011;66638;50.050;21.124;2023-10-19T09:13:42;7.00;;;4.80;;
77524;SDS011;66638;50.050;21.124;2023-10-19T09:16:38;6.10;;;4.70;;
77524;SDS011;66638;50.050;21.124;2023-10-19T09:19:49;6.60;;;4.40;;
77524;SDS011;66638;50.050;21.124;2023-10-19T09:22:39;6.00;;;4.50;;
77524;SDS011;66638;50.050;21.124;2023-10-19T09:25:32;6.80;;;4.80;;
77524;SDS011;66638;50.050;21.124;2023-10-19T09:28:20;7.40;;;5.20;;
77524;SDS011;66638;50.050;21.124;2023-10-19T09:31:08;7.90;;;5.20;;
77524;SDS011;66638;50.050;21.124;2023-10-19T09:33:59;6.60;;;5.20;;
77524;SDS011;66638;50.050;21.124;2023-10-19T09:36:50;6.10;;;4.60;;
77524;SDS011;66638;50.050;21.124;2023-10-19T09:39:41;7.90;;;5.20;;
77524;SDS011;66638;50.050;21.124;2023-10-19T09:42:30;6.90;;;4.70;;
77524;SDS011;66638;50.050;21.124;2023-10-19T09:45:19;6.40;;;4.00;;
77524;SDS011;66638;50.050;21.124;2023-10-19T09:48:10;8.90;;;6.60;;
77524;SDS011;66638;50.050;21.124;2023-10-19T09:51:07;5.90;;;4.30;;
77524;SDS011;66638;50.050;21.124;2023-10-19T09:54:05;8.00;;;5.00;;
77524;SDS011;66638;50.050;21.124;2023-10-19T09:57:00;7.30;;;4.30;;
77524;SDS011;66638;50.050;21.124;2023-10-19T09:59:51;6.90;;;4.70;;
77524;SDS011;66638;50.050;21.124;2023-10-19T10:02:43;5.00;;;3.90;;
77524;SDS011;66638;50.050;21.124;2023-10-19T10:05:45;6.30;;;4.80;;
77524;SDS011;66638;50.050;21.124;2023-10-19T10:08:38;7.80;;;4.70;;
77524;SDS011;66638;50.050;21.124;2023-10-19T10:11:28;7.10;;;4.90;;
77524;SDS011;66638;50.050;21.124;2023-10-19T10:14:24;5.70;;;3.90;;
77524;SDS011;66638;50.050;21.124;2023-10-19T10:17:16;7.60;;;4.70;;
77524;SDS011;66638;50.050;21.124;2023-10-19T10:23:17;6.10;;;4.10;;
77524;SDS011;66638;50.050;21.124;2023-10-19T10:26:09;7.70;;;4.30;;
77524;SDS011;66638;50.050;21.124;2023-10-19T10:32:14;7.60;;;4.60;;
77524;SDS011;66638;50.050;21.124;2023-10-19T10:38:41;6.40;;;4.50;;
77524;SDS011;66638;50.050;21.124;2023-10-19T10:41:28;7.30;;;4.50;;
77524;SDS011;66638;50.050;21.124;2023-10-19T10:44:16;6.90;;;4.30;;
77524;SDS011;66638;50.050;21.124;2023-10-19T10:47:04;5.80;;;4.40;;
77524;SDS011;66638;50.050;21.124;2023-10-19T10:49:56;10.90;;;4.60;;
77524;SDS011;66638;50.050;21.124;2023-10-19T10:52:47;6.40;;;5.00;;
77524;SDS011;66638;50.050;21.124;2023-10-19T10:55:39;8.10;;;4.70;;
77524;SDS011;66638;50.050;21.124;2023-10-19T10:58:27;7.50;;;4.50;;
77524;SDS011;66638;50.050;21.124;2023-10-19T11:01:28;6.30;;;4.70;;
77524;SDS011;66638;50.050;21.124;2023-10-19T11:04:17;6.80;;;5.70;;
77524;SDS011;66638;50.050;21.124;2023-10-19T11:07:04;9.70;;;6.80;;
77524;SDS011;66638;50.050;21.124;2023-10-19T11:09:51;10.50;;;6.50;;
77524;SDS011;66638;50.050;21.124;2023-10-19T11:12:39;10.70;;;6.60;;
77524;SDS011;66638;50.050;21.124;2023-10-19T11:15:26;22.40;;;12.60;;
77524;SDS011;66638;50.050;21.124;2023-10-19T11:18:27;15.40;;;8.30;;
77524;SDS011;66638;50.050;21.124;2023-10-19T11:21:20;8.10;;;5.10;;
77524;SDS011;66638;50.050;21.124;2023-10-19T11:24:07;9.60;;;5.90;;
77524;SDS011;66638;50.050;21.124;2023-10-19T11:26:54;9.30;;;5.80;;
77524;SDS011;66638;50.050;21.124;2023-10-19T11:29:53;10.20;;;5.30;;
77524;SDS011;66638;50.050;21.124;2023-10-19T11:32:44;7.10;;;4.60;;
77524;SDS011;66638;50.050;21.124;2023-10-19T11:35:35;5.60;;;4.30;;
77524;SDS011;66638;50.050;21.124;2023-10-19T11:38:22;8.00;;;4.90;;
77524;SDS011;66638;50.050;21.124;2023-10-19T11:41:10;6.30;;;4.50;;
77524;SDS011;66638;50.050;21.124;2023-10-19T11:44:04;7.00;;;4.40;;
77524;SDS011;66638;50.050;21.124;2023-10-19T11:46:54;7.20;;;4.50;;
77524;SDS011;66638;50.050;21.124;2023-10-19T11:49:41;7.80;;;4.30;;
77524;SDS011;66638;50.050;21.124;2023-10-19T11:52:29;7.10;;;4.20;;
77524;SDS011;66638;50.050;21.124;2023-10-19T11:55:17;5.30;;;3.50;;
77524;SDS011;66638;50.050;21.124;2023-10-19T11:58:04;5.90;;;4.10;;
77524;SDS011;66638;50.050;21.124;2023-10-19T12:00:52;7.10;;;4.60;;
77524;SDS011;66638;50.050;21.124;2023-10-19T12:03:41;24.40;;;14.10;;
77524;SDS011;66638;50.050;21.124;2023-10-19T12:06:32;6.40;;;3.70;;
77524;SDS011;66638;50.050;21.124;2023-10-19T12:09:20;5.60;;;4.00;;
77524;SDS011;66638;50.050;21.124;2023-10-19T12:12:11;5.50;;;3.90;;
77524;SDS011;66638;50.050;21.124;2023-10-19T12:15:00;6.00;;;3.30;;
77524;SDS011;66638;50.050;21.124;2023-10-19T12:17:49;8.20;;;4.30;;
77524;SDS011;66638;50.050;21.124;2023-10-19T12:20:37;5.30;;;3.60;;
77524;SDS011;66638;50.050;21.124;2023-10-19T12:23:26;10.10;;;3.60;;
77524;SDS011;66638;50.050;21.124;2023-10-19T12:26:13;5.90;;;4.30;;
77524;SDS011;66638;50.050;21.124;2023-10-19T12:29:01;5.70;;;4.10;;
77524;SDS011;66638;50.050;21.124;2023-10-19T12:31:53;6.10;;;3.80;;
77524;SDS011;66638;50.050;21.124;2023-10-19T12:34:41;6.30;;;4.50;;
77524;SDS011;66638;50.050;21.124;2023-10-19T12:37:28;5.20;;;3.70;;
77524;SDS011;66638;50.050;21.124;2023-10-19T12:40:17;5.30;;;3.60;;
77524;SDS011;66638;50.050;21.124;2023-10-19T12:43:14;6.20;;;4.60;;
77524;SDS011;66638;50.050;21.124;2023-10-19T12:46:02;5.90;;;3.70;;
77524;SDS011;66638;50.050;21.124;2023-10-19T12:48:49;5.60;;;3.90;;
77524;SDS011;66638;50.050;21.124;2023-10-19T12:51:38;6.70;;;4.50;;
77524;SDS011;66638;50.050;21.124;2023-10-19T12:54:27;5.10;;;3.00;;
77524;SDS011;66638;50.050;21.124;2023-10-19T12:57:15;5.10;;;3.90;;
77524;SDS011;66638;50.050;21.124;2023-10-19T13:00:03;6.00;;;3.80;;
77524;SDS011;66638;50.050;21.124;2023-10-19T13:03:12;5.00;;;4.40;;
77524;SDS011;66638;50.050;21.124;2023-10-19T13:06:03;6.30;;;4.70;;
77524;SDS011;66638;50.050;21.124;2023-10-19T13:08:54;6.50;;;4.50;;
77524;SDS011;66638;50.050;21.124;2023-10-19T13:11:41;6.70;;;4.90;;
77524;SDS011;66638;50.050;21.124;2023-10-19T13:14:30;7.60;;;5.30;;
77524;SDS011;66638;50.050;21.124;2023-10-19T13:17:17;6.60;;;4.90;;
77524;SDS011;66638;50.050;21.124;2023-10-19T13:20:05;5.80;;;4.60;;
77524;SDS011;66638;50.050;21.124;2023-10-19T13:23:03;6.30;;;4.50;;
77524;SDS011;66638;50.050;21.124;2023-10-19T13:25:53;4.70;;;3.80;;
77524;SDS011;66638;50.050;21.124;2023-10-19T13:28:41;5.20;;;3.90;;
77524;SDS011;66638;50.050;21.124;2023-10-19T13:31:29;12.90;;;6.50;;
77524;SDS011;66638;50.050;21.124;2023-10-19T13:34:16;5.40;;;4.60;;
77524;SDS011;66638;50.050;21.124;2023-10-19T13:37:03;12.70;;;7.10;;
77524;SDS011;66638;50.050;21.124;2023-10-19T13:39:51;4.80;;;3.50;;
77524;SDS011;66638;50.050;21.124;2023-10-19T13:42:38;9.50;;;7.80;;
77524;SDS011;66638;50.050;21.124;2023-10-19T13:45:26;9.00;;;6.90;;
77524;SDS011;66638;50.050;21.124;2023-10-19T13:48:14;5.40;;;4.40;;
77524;SDS011;66638;50.050;21.124;2023-10-19T13:51:02;5.60;;;4.40;;
77524;SDS011;66638;50.050;21.124;2023-10-19T13:53:59;5.60;;;4.30;;
77524;SDS011;66638;50.050;21.124;2023-10-19T13:56:47;6.00;;;5.10;;
77524;SDS011;66638;50.050;21.124;2023-10-19T13:59:34;6.00;;;4.50;;
77524;SDS011;66638;50.050;21.124;2023-10-19T14:02:21;5.90;;;3.90;;
77524;SDS011;66638;50.050;21.124;2023-10-19T14:05:09;6.30;;;4.20;;
77524;SDS011;66638;50.050;21.124;2023-10-19T14:07:58;6.20;;;4.30;;
77524;SDS011;66638;50.050;21.124;2023-10-19T14:10:45;5.90;;;4.60;;
77524;SDS011;66638;50.050;21.124;2023-10-19T14:13:34;7.60;;;5.20;;
77524;SDS011;66638;50.050;21.124;2023-10-19T14:16:22;14.20;;;12.80;;
77524;SDS011;66638;50.050;21.124;2023-10-19T14:19:12;5.90;;;4.30;;
77524;SDS011;66638;50.050;21.124;2023-10-19T14:22:01;8.80;;;5.30;;
77524;SDS011;66638;50.050;21.124;2023-10-19T14:24:49;4.60;;;3.20;;
77524;SDS011;66638;50.050;21.124;2023-10-19T14:27:36;7.50;;;4.70;;
77524;SDS011;66638;50.050;21.124;2023-10-19T14:30:25;5.90;;;4.00;;
77524;SDS011;66638;50.050;21.124;2023-10-19T14:36:10;5.30;;;3.90;;
77524;SDS011;66638;50.050;21.124;2023-10-19T14:38:57;29.10;;;15.40;;
77524;SDS011;66638;50.050;21.124;2023-10-19T14:41:44;33.80;;;23.00;;
77524;SDS011;66638;50.050;21.124;2023-10-19T14:44:32;15.20;;;13.10;;
77524;SDS011;66638;50.050;21.124;2023-10-19T14:47:19;6.40;;;5.30;;
77524;SDS011;66638;50.050;21.124;2023-10-19T14:50:10;7.50;;;6.40;;
77524;SDS011;66638;50.050;21.124;2023-10-19T14:52:58;8.00;;;5.30;;
77524;SDS011;66638;50.050;21.124;2023-10-19T14:55:45;6.70;;;5.10;;
77524;SDS011;66638;50.050;21.124;2023-10-19T14:58:32;10.10;;;7.00;;
77524;SDS011;66638;50.050;21.124;2023-10-19T15:01:23;7.90;;;5.90;;
77524;SDS011;66638;50.050;21.124;2023-10-19T15:04:12;5.90;;;3.70;;
77524;SDS011;66638;50.050;21.124;2023-10-19T15:06:59;7.00;;;5.70;;
77524;SDS011;66638;50.050;21.124;2023-10-19T15:09:48;8.50;;;6.20;;
77524;SDS011;66638;50.050;21.124;2023-10-19T15:12:36;10.10;;;6.60;;
77524;SDS011;66638;50.050;21.124;2023-10-19T15:15:24;13.40;;;6.90;;
77524;SDS011;66638;50.050;21.124;2023-10-19T15:18:11;9.70;;;5.20;;
77524;SDS011;66638;50.050;21.124;2023-10-19T15:21:06;12.70;;;7.40;;
77524;SDS011;66638;50.050;21.124;2023-10-19T15:23:55;15.90;;;9.00;;
77524;SDS011;66638;50.050;21.124;2023-10-19T15:26:42;20.70;;;12.30;;
77524;SDS011;66638;50.050;21.124;2023-10-19T15:29:30;19.20;;;9.10;;
77524;SDS011;66638;50.050;21.124;2023-10-19T15:32:17;13.70;;;7.20;;
77524;SDS011;66638;50.050;21.124;2023-10-19T15:35:12;12.30;;;6.70;;
77524;SDS011;66638;50.050;21.124;2023-10-19T15:38:01;10.30;;;6.60;;
77524;SDS011;66638;50.050;21.124;2023-10-19T15:43:36;12.20;;;7.80;;
77524;SDS011;66638;50.050;21.124;2023-10-19T15:46:24;34.10;;;15.70;;
77524;SDS011;66638;50.050;21.124;2023-10-19T15:49:12;20.10;;;11.80;;
77524;SDS011;66638;50.050;21.124;2023-10-19T15:51:59;13.60;;;7.10;;
77524;SDS011;66638;50.050;21.124;2023-10-19T15:54:47;9.60;;;6.20;;
77524;SDS011;66638;50.050;21.124;2023-10-19T15:57:34;17.70;;;10.00;;
77524;SDS011;66638;50.050;21.124;2023-10-19T16:00:22;15.20;;;9.10;;
77524;SDS011;66638;50.050;21.124;2023-10-19T16:03:09;24.10;;;12.80;;
77524;SDS011;66638;50.050;21.124;2023-10-19T16:05:56;9.40;;;5.10;;
77524;SDS011;66638;50.050;21.124;2023-10-19T16:08:44;5.90;;;3.70;;
77524;SDS011;66638;50.050;21.124;2023-10-19T16:11:31;7.00;;;4.40;;
77524;SDS011;66638;50.050;21.124;2023-10-19T16:14:18;6.60;;;4.90;;
77524;SDS011;66638;50.050;21.124;2023-10-19T16:17:06;6.20;;;4.50;;
77524;SDS011;66638;50.050;21.124;2023-10-19T16:19:57;5.90;;;4.30;;
77524;SDS011;66638;50.050;21.124;2023-10-19T16:22:44;6.70;;;3.80;;
77524;SDS011;66638;50.050;21.124;2023-10-19T16:25:32;7.80;;;4.40;;
77524;SDS011;66638;50.050;21.124;2023-10-19T16:28:20;5.70;;;4.40;;
77524;SDS011;66638;50.050;21.124;2023-10-19T16:31:07;7.50;;;4.20;;
77524;SDS011;66638;50.050;21.124;2023-10-19T16:33:58;6.10;;;4.50;;
77524;SDS011;66638;50.050;21.124;2023-10-19T16:36:46;7.70;;;5.60;;
77524;SDS011;66638;50.050;21.124;2023-10-19T16:39:33;9.30;;;6.40;;
77524;SDS011;66638;50.050;21.124;2023-10-19T16:42:20;4.50;;;3.00;;
77524;SDS011;66638;50.050;21.124;2023-10-19T16:45:09;5.50;;;3.70;;
77524;SDS011;66638;50.050;21.124;2023-10-19T16:47:59;5.50;;;3.70;;
77524;SDS011;66638;50.050;21.124;2023-10-19T16:50:46;8.30;;;5.40;;
77524;SDS011;66638;50.050;21.124;2023-10-19T16:53:33;9.30;;;6.10;;
77524;SDS011;66638;50.050;21.124;2023-10-19T16:56:21;7.40;;;5.90;;
77524;SDS011;66638;50.050;21.124;2023-10-19T16:59:08;6.40;;;4.10;;
77524;SDS011;66638;50.050;21.124;2023-10-19T17:01:59;7.50;;;5.20;;
77524;SDS011;66638;50.050;21.124;2023-10-19T17:07:38;14.20;;;7.30;;